Downs, KS (67437)

12:53 PM CDT on March 27, 2015 (GMT -0500)
Cawker City | | Change Station
CLOSE
Current Station
Personal Weather Station
Location: Cawker City, KS
Elevation: 1490 ft
Nearby Weather Stations

Elev 1490 ft 39.51 °N, 98.44 °W | Updated 3 seconds ago

Overcast
Overcast
42.1 °F
Feels Like 42 °F
N
2.0
Wind Variable Wind from East
Gusts 2.5 mph

Today
High -- | Low -- °F
--% Chance of Precip.
Yesterday
High -- | Low -- °F
Precip. -- in
7:26 AM 7:52 PM
First Quarter, 54% visible
Pressure 30.28 in
Visibility 10.0 miles
Clouds Mostly Cloudy 6000 ft
Mostly Cloudy 8000 ft
Overcast 12000 ft
Windchill 42 °F
Dew Point 26 °F
Humidity 53%
Rainfall 0.00 in
Snow Depth Not available.
UV 2 out of 12
Pollen 6.80 out of 12
Air Quality Not available.
Flu Activity Not available.
METAR KRSL 271653Z AUTO 05006KT 10SM BKN060 BKN080 OVC120 06/M04 A3024 RMK AO2 SLP252 T00561039

More Conditions Fewer Conditions

Pressure 30.28 in
Visibility 10.0 miles
Clouds Mostly Cloudy 6000 ft
Mostly Cloudy 8000 ft
Overcast 12000 ft
Windchill 42 °F
Dew Point 26 °F
Humidity 53%
Rainfall 0.00 in
Snow Depth Not available.
UV 2 out of 12
Pollen 6.80 out of 12
Air Quality Not available.
Flu Activity Not available.
METAR KRSL 271653Z AUTO 05006KT 10SM BKN060 BKN080 OVC120 06/M04 A3024 RMK AO2 SLP252 T00561039

More Conditions Fewer Conditions

10-Day Weather Forecast

Almanac

Astronomy

Mar. 27, 2015 Rise Set
Actual Time
Civil Twilight
Nautical Twilight
Astronomical Twilight
Moon
Length of Visible Light
Length of Day
Tomorrow will be .
, % of the Moon is Illuminated

Today's Extremes

State Highs State Lows

Community

WunderPhotos

Upload Photos

1,808,772 photos uploaded!

WunderBlogs® & News

Nearby

Air Quality

  Air Quality AQ Index Pollutant
Not available.

Snow Depth

Station Depth Elevation

Earthquake Activity

City Distance Mag. Time & Date
Minimum magnitude displayed is 2.5.

Coastal Water Temperatures

Place Temperature

Stations

Nearby Weather Stations

Station Location Temp. Windchill Dew Point Humidity Wind Precip. Elev Updated Type